createdAt,value
2022-08-04T00:04:03.909Z,27.30
2022-08-04T00:09:09.087Z,27.20
2022-08-04T00:14:15.626Z,27.10
2022-08-04T00:19:19.252Z,27.10
2022-08-04T00:24:18.921Z,27.00
2022-08-04T00:29:18.506Z,26.90
2022-08-04T00:34:17.259Z,26.90
2022-08-04T00:39:19.762Z,26.80
2022-08-04T00:44:31.721Z,26.80
2022-08-04T00:49:56.441Z,26.70
2022-08-04T00:55:09.092Z,26.70
2022-08-04T01:00:12.651Z,26.60
2022-08-04T01:05:19.477Z,26.60
2022-08-04T01:10:26.684Z,26.50
2022-08-04T01:15:53.775Z,26.40
2022-08-04T01:21:27.650Z,26.40
2022-08-04T01:26:53.770Z,26.40
2022-08-04T01:32:03.551Z,26.30
2022-08-04T01:37:09.682Z,26.30
2022-08-04T01:42:09.732Z,26.20
2022-08-04T01:47:11.240Z,26.10
2022-08-04T01:52:11.298Z,26.10
2022-08-04T01:57:37.495Z,26.00
2022-08-04T02:02:31.613Z,26.00
2022-08-04T02:07:41.503Z,25.90
2022-08-04T02:12:54.177Z,25.80
2022-08-04T02:18:02.123Z,25.80
2022-08-04T02:23:04.416Z,25.70
2022-08-04T02:28:14.171Z,25.60
2022-08-04T02:33:16.835Z,25.60
2022-08-04T02:38:26.003Z,25.50
2022-08-04T02:43:50.814Z,25.40
2022-08-04T02:48:48.198Z,25.40
2022-08-04T02:53:48.155Z,25.30
2022-08-04T02:58:50.336Z,25.30
2022-08-04T03:03:59.598Z,25.20
2022-08-04T03:09:20.148Z,25.20
2022-08-04T03:14:54.336Z,25.20
2022-08-04T03:20:23.281Z,25.20
2022-08-04T03:25:57.476Z,25.10
2022-08-04T03:31:23.402Z,25.10
2022-08-04T03:36:54.373Z,25.00
2022-08-04T03:42:18.378Z,25.00
2022-08-04T03:47:42.193Z,24.90
2022-08-04T03:53:29.603Z,24.80
2022-08-04T03:58:48.874Z,24.80
2022-08-04T04:04:15.527Z,24.70
2022-08-04T04:09:54.828Z,24.70
2022-08-04T04:15:10.053Z,24.70
2022-08-04T04:20:41.596Z,24.60
2022-08-04T04:25:51.611Z,24.60
2022-08-04T04:31:02.395Z,24.60
2022-08-04T04:36:12.143Z,24.60
2022-08-04T04:41:29.849Z,24.50
2022-08-04T04:46:39.177Z,24.50
2022-08-04T04:51:44.714Z,24.50
2022-08-04T04:56:49.873Z,24.50
2022-08-04T05:02:26.305Z,24.60
2022-08-04T05:07:57.610Z,24.60
2022-08-04T05:14:36.038Z,24.60
2022-08-04T05:18:39.483Z,24.70
2022-08-04T05:23:44.197Z,24.80
2022-08-04T05:28:53.164Z,24.90
2022-08-04T05:33:56.775Z,25.00
2022-08-04T05:38:59.877Z,25.20
2022-08-04T05:44:02.067Z,25.20
2022-08-04T05:49:00.379Z,25.40
2022-08-04T05:53:59.822Z,25.50
2022-08-04T05:59:00.978Z,25.60
2022-08-04T06:04:01.698Z,25.70
2022-08-04T06:09:00.330Z,25.90
2022-08-04T06:14:04.442Z,26.10
2022-08-04T06:20:01.199Z,26.30
2022-08-04T06:24:27.372Z,26.40
2022-08-04T06:29:30.484Z,26.60
2022-08-04T06:34:29.185Z,26.80
2022-08-04T06:39:30.771Z,26.90
2022-08-04T06:44:32.085Z,27.10
2022-08-04T06:49:32.072Z,27.40
2022-08-04T06:54:52.800Z,27.50
2022-08-04T06:59:54.981Z,27.70
2022-08-04T07:04:53.949Z,28.00
2022-08-04T07:09:52.652Z,28.20
2022-08-04T07:14:53.553Z,28.40
2022-08-04T07:19:53.009Z,28.80
2022-08-04T07:24:56.968Z,29.10
2022-08-04T07:29:56.964Z,29.30
2022-08-04T07:34:56.257Z,29.60
2022-08-04T07:39:54.891Z,29.90
2022-08-04T07:44:53.317Z,30.00
2022-08-04T07:49:57.128Z,30.10
2022-08-04T07:54:56.332Z,30.40
2022-08-04T07:59:54.788Z,30.70
2022-08-04T08:04:54.618Z,31.00
2022-08-04T08:16:41.937Z,31.40
2022-08-04T08:21:59.542Z,31.30
2022-08-04T08:26:58.842Z,31.40
2022-08-04T08:32:02.681Z,31.60
2022-08-04T08:37:13.652Z,31.80
2022-08-04T08:44:06.556Z,32.00
2022-08-04T08:49:00.855Z,32.30
2022-08-04T09:01:07.103Z,32.90
2022-08-04T09:06:37.850Z,33.00
2022-08-04T09:11:43.231Z,33.10
2022-08-04T09:16:50.516Z,33.30
2022-08-04T09:21:55.294Z,33.50
2022-08-04T09:26:59.767Z,33.60
2022-08-04T09:32:08.062Z,33.60
2022-08-04T09:37:14.779Z,33.70
2022-08-04T09:42:26.067Z,33.80
2022-08-04T09:47:39.663Z,34.00
2022-08-04T09:52:48.046Z,34.20
2022-08-04T09:57:59.292Z,34.40
2022-08-04T10:03:02.686Z,34.50
2022-08-04T10:08:24.221Z,34.60
2022-08-04T10:13:33.819Z,34.70
2022-08-04T10:18:46.768Z,34.90
2022-08-04T10:24:00.338Z,35.10
2022-08-04T10:29:04.245Z,35.30
2022-08-04T10:34:12.620Z,35.60
2022-08-04T10:39:42.965Z,35.80
2022-08-04T10:44:53.191Z,35.90
2022-08-04T10:50:02.522Z,36.00
2022-08-04T10:55:07.992Z,36.10
2022-08-04T11:00:09.233Z,36.20
2022-08-04T11:05:19.792Z,36.40
2022-08-04T11:10:21.522Z,36.60
2022-08-04T11:15:26.185Z,36.70
2022-08-04T11:20:35.985Z,36.70
2022-08-04T11:25:42.869Z,36.70
2022-08-04T11:30:48.716Z,36.70
2022-08-04T11:35:53.752Z,36.80
2022-08-04T11:41:02.690Z,36.70
2022-08-04T11:46:08.409Z,36.80
2022-08-04T11:51:09.565Z,36.90
2022-08-04T11:56:27.669Z,37.00
2022-08-04T12:02:03.639Z,37.20
2022-08-04T12:12:33.784Z,37.20
2022-08-04T12:17:52.715Z,37.40
2022-08-04T12:22:56.605Z,37.50
2022-08-04T12:28:01.177Z,37.50
2022-08-04T12:33:03.877Z,37.60
2022-08-04T12:38:06.578Z,37.70
2022-08-04T12:43:12.867Z,37.80
2022-08-04T12:48:11.438Z,37.80
2022-08-04T12:53:19.542Z,37.90
2022-08-04T12:58:42.959Z,38.00
2022-08-04T13:03:45.327Z,38.10
2022-08-04T13:08:47.953Z,38.20
2022-08-04T13:13:47.134Z,38.20
2022-08-04T13:18:50.084Z,38.20
2022-08-04T13:24:10.605Z,38.10
2022-08-04T13:30:24.950Z,38.00
2022-08-04T13:34:34.346Z,37.90
2022-08-04T13:39:35.910Z,37.70
2022-08-04T13:44:37.725Z,37.60
2022-08-04T13:49:42.688Z,37.40
2022-08-04T13:54:55.848Z,37.40
2022-08-04T13:59:57.579Z,37.40
2022-08-04T14:04:58.542Z,37.40
2022-08-04T14:10:03.174Z,37.60
2022-08-04T14:15:02.374Z,37.70
2022-08-04T14:20:02.125Z,37.80
2022-08-04T14:25:05.326Z,37.90
2022-08-04T14:30:03.597Z,38.00
2022-08-04T14:35:12.303Z,38.00
2022-08-04T14:40:30.789Z,38.00
2022-08-04T14:45:35.485Z,38.00
2022-08-04T14:50:39.429Z,38.10
2022-08-04T14:55:41.091Z,38.20
2022-08-04T15:07:34.552Z,38.30
2022-08-04T15:12:34.339Z,38.20
2022-08-04T15:17:32.981Z,38.10
2022-08-04T15:22:31.591Z,38.10
2022-08-04T15:27:35.959Z,37.90
2022-08-04T15:32:36.009Z,37.80
2022-08-04T15:37:41.055Z,37.70
2022-08-04T15:42:48.247Z,37.50
2022-08-04T15:48:15.494Z,37.20
2022-08-04T15:53:14.492Z,37.00
2022-08-04T15:58:24.175Z,36.80
2022-08-04T16:03:58.946Z,36.50
2022-08-04T16:09:00.876Z,36.20
2022-08-04T16:14:12.767Z,35.50
2022-08-04T16:19:13.653Z,34.70
2022-08-04T16:24:21.978Z,34.20
2022-08-04T16:29:36.523Z,33.60
2022-08-04T16:34:47.180Z,33.30
2022-08-04T16:39:50.086Z,33.00
2022-08-04T16:45:00.700Z,32.80
2022-08-04T16:50:03.530Z,32.60
2022-08-04T16:55:01.834Z,32.50
2022-08-04T17:00:01.535Z,32.50
2022-08-04T17:05:07.291Z,32.50
2022-08-04T17:10:06.723Z,32.40
2022-08-04T17:15:21.619Z,32.40
2022-08-04T17:20:27.927Z,32.30
2022-08-04T17:25:52.973Z,32.20
2022-08-04T17:30:56.108Z,32.00
2022-08-04T17:35:57.275Z,31.80
2022-08-04T17:40:59.956Z,31.60
2022-08-04T17:46:29.013Z,31.50
2022-08-04T17:52:04.322Z,31.40
2022-08-04T17:57:02.602Z,31.10
2022-08-04T18:08:38.746Z,30.80
2022-08-04T18:13:42.674Z,30.80
2022-08-04T18:18:41.594Z,30.60
2022-08-04T18:23:50.868Z,30.40
2022-08-04T18:28:49.482Z,30.20
2022-08-04T18:33:57.068Z,30.30
2022-08-04T18:39:13.834Z,30.40
2022-08-04T18:44:14.652Z,30.30
2022-08-04T18:50:59.785Z,30.20
2022-08-04T18:54:35.861Z,30.20
2022-08-04T18:59:34.160Z,30.20
2022-08-04T19:04:36.990Z,30.10
2022-08-04T19:09:51.476Z,30.00
2022-08-04T19:14:55.098Z,30.00
2022-08-04T19:19:56.760Z,29.90
2022-08-04T19:24:57.218Z,29.80
2022-08-04T19:29:55.464Z,29.70
2022-08-04T19:34:53.729Z,29.60
2022-08-04T19:39:52.959Z,29.60
2022-08-04T19:44:53.682Z,29.50
2022-08-04T19:50:04.108Z,29.40
2022-08-04T19:55:10.935Z,29.40
2022-08-04T20:00:15.245Z,29.30
2022-08-04T20:05:14.633Z,29.20
2022-08-04T20:10:14.935Z,29.10
2022-08-04T20:15:15.160Z,29.00
2022-08-04T20:20:14.964Z,29.00
2022-08-04T20:25:35.552Z,28.90
2022-08-04T20:30:34.141Z,28.80
2022-08-04T20:35:45.918Z,28.70
2022-08-04T20:40:51.651Z,28.60
2022-08-04T20:45:56.480Z,28.60
2022-08-04T20:50:58.001Z,28.40
2022-08-04T20:55:56.434Z,28.40
2022-08-04T21:00:57.067Z,28.30
2022-08-04T21:05:56.772Z,28.20
2022-08-04T21:10:54.997Z,28.10
2022-08-04T21:15:59.124Z,28.00
2022-08-04T21:20:59.117Z,28.00
2022-08-04T21:26:01.949Z,27.90
2022-08-04T21:31:02.470Z,27.80
2022-08-04T21:36:11.837Z,27.60
2022-08-04T21:41:10.728Z,27.60
2022-08-04T21:46:12.224Z,27.50
2022-08-04T21:51:21.790Z,27.40
2022-08-04T21:56:38.389Z,27.30
2022-08-04T22:01:50.567Z,27.30
2022-08-04T22:06:52.804Z,27.30
2022-08-04T22:11:52.342Z,27.20
2022-08-04T22:16:51.937Z,27.10
2022-08-04T22:21:54.150Z,27.00
2022-08-04T22:26:53.429Z,27.00
2022-08-04T22:31:56.240Z,26.90
2022-08-04T22:36:56.749Z,26.90
2022-08-04T22:42:03.858Z,26.80
2022-08-04T22:47:02.845Z,26.70
2022-08-04T22:52:10.463Z,26.70
2022-08-04T22:57:16.929Z,26.70
2022-08-04T23:02:15.138Z,26.60
2022-08-04T23:07:15.355Z,26.50
2022-08-04T23:12:29.156Z,26.40
2022-08-04T23:17:31.942Z,26.30
2022-08-04T23:22:43.574Z,26.30
2022-08-04T23:27:50.449Z,26.20
2022-08-04T23:32:50.026Z,26.20
2022-08-04T23:37:56.252Z,26.10
2022-08-04T23:42:55.716Z,26.00
2022-08-04T23:48:15.342Z,26.00
2022-08-04T23:53:18.614Z,25.90
2022-08-04T23:58:26.781Z,25.80
